createdAt,value
2023-03-26T00:01:33.317Z,98960.72
2023-03-26T00:04:01.513Z,98950.50
2023-03-26T00:06:34.512Z,98937.72
2023-03-26T00:09:02.799Z,98947.66
2023-03-26T00:11:30.531Z,98947.88
2023-03-26T00:13:58.684Z,98955.31
2023-03-26T00:16:29.347Z,98950.31
2023-03-26T00:18:57.665Z,98943.88
2023-03-26T00:21:27.044Z,98944.19
2023-03-26T00:24:03.121Z,98933.47
2023-03-26T00:26:31.711Z,98928.47
2023-03-26T00:28:59.816Z,98920.59
2023-03-26T00:31:27.815Z,98916.47
2023-03-26T00:33:55.953Z,98922.81
2023-03-26T00:36:25.541Z,98927.66
2023-03-26T00:38:54.433Z,98919.03
2023-03-26T00:41:24.438Z,98919.63
2023-03-26T00:43:55.090Z,98915.19
2023-03-26T00:46:24.266Z,98925.28
2023-03-26T00:48:53.035Z,98927.06
2023-03-26T00:51:21.541Z,98936.97
2023-03-26T00:53:50.303Z,98940.66
2023-03-26T00:56:18.769Z,98932.63
2023-03-26T00:58:47.047Z,98932.34
2023-03-26T01:01:19.396Z,98930.44
2023-03-26T01:04:01.236Z,98922.72
2023-03-26T01:06:33.816Z,98919.19
2023-03-26T01:09:04.941Z,98915.00
2023-03-26T01:11:35.125Z,98916.78
2023-03-26T01:14:10.323Z,98913.13
2023-03-26T01:16:55.429Z,98901.72
2023-03-26T01:19:45.178Z,98911.53
2023-03-26T01:22:19.194Z,98912.88
2023-03-26T01:24:47.784Z,98908.50
2023-03-26T01:27:20.888Z,98905.94
2023-03-26T01:30:12.825Z,98906.84
2023-03-26T01:32:44.012Z,98904.53
2023-03-26T01:35:15.088Z,98902.25
2023-03-26T01:38:16.056Z,98907.16
2023-03-26T01:41:05.030Z,98897.69
2023-03-26T01:43:38.817Z,98909.22
2023-03-26T01:46:09.613Z,98909.41
2023-03-26T01:48:40.335Z,98908.50
2023-03-26T01:51:09.439Z,98913.84
2023-03-26T01:53:45.209Z,98909.78
2023-03-26T01:56:27.636Z,98914.34
2023-03-26T01:59:00.644Z,98923.28
2023-03-26T02:01:33.256Z,98920.66
2023-03-26T02:04:22.165Z,98926.47
2023-03-26T02:07:04.718Z,98923.81
2023-03-26T02:09:37.893Z,98926.50
2023-03-26T02:12:07.065Z,98928.22
2023-03-26T02:14:35.860Z,98928.50
2023-03-26T02:17:03.626Z,98924.56
2023-03-26T02:19:31.403Z,98925.78
2023-03-26T02:21:59.816Z,98925.78
2023-03-26T02:24:30.780Z,98923.84
2023-03-26T02:26:58.626Z,98933.69
2023-03-26T02:29:26.904Z,98944.72
2023-03-26T02:31:54.877Z,98943.91
2023-03-26T02:34:22.608Z,98942.53
2023-03-26T02:36:50.956Z,98933.16
2023-03-26T02:39:18.839Z,98943.63
2023-03-26T02:41:47.923Z,98950.13
2023-03-26T02:44:15.992Z,98941.66
2023-03-26T02:46:49.811Z,98943.78
2023-03-26T02:49:18.216Z,98938.22
2023-03-26T02:51:45.956Z,98937.91
2023-03-26T02:54:13.765Z,98929.88
2023-03-26T02:56:42.539Z,98934.84
2023-03-26T02:59:11.003Z,98932.47
2023-03-26T03:01:39.388Z,98931.63
2023-03-26T03:04:07.469Z,98930.66
2023-03-26T03:06:35.192Z,98933.72
2023-03-26T03:09:03.001Z,98932.97
2023-03-26T03:11:32.831Z,98934.37
2023-03-26T03:14:00.801Z,98928.16
2023-03-26T03:16:30.196Z,98930.03
2023-03-26T03:18:58.730Z,98931.03
2023-03-26T03:21:28.587Z,98932.25
2023-03-26T03:23:56.460Z,98928.84
2023-03-26T03:26:29.318Z,98932.38
2023-03-26T03:28:58.017Z,98931.22
2023-03-26T03:31:26.304Z,98929.13
2023-03-26T03:33:55.135Z,98922.66
2023-03-26T03:36:23.591Z,98930.69
2023-03-26T03:38:51.884Z,98925.03
2023-03-26T03:41:20.019Z,98930.72
2023-03-26T03:43:48.002Z,98931.16
2023-03-26T03:46:16.184Z,98932.69
2023-03-26T03:48:44.404Z,98935.81
2023-03-26T03:51:12.340Z,98929.34
2023-03-26T03:53:40.357Z,98933.41
2023-03-26T03:56:08.674Z,98928.06
2023-03-26T03:58:37.817Z,98932.59
2023-03-26T04:01:06.151Z,98932.97
2023-03-26T04:03:37.008Z,98939.59
2023-03-26T04:06:06.856Z,98948.25
2023-03-26T04:08:35.144Z,98953.25
2023-03-26T04:11:05.100Z,98953.47
2023-03-26T04:13:33.783Z,98954.09
2023-03-26T04:16:03.469Z,98957.56
2023-03-26T04:18:31.137Z,98957.28
2023-03-26T04:21:01.461Z,98960.28
2023-03-26T04:23:31.763Z,98958.72
2023-03-26T04:26:06.133Z,98952.06
2023-03-26T04:28:48.019Z,98946.69
2023-03-26T04:31:20.071Z,98950.22
2023-03-26T04:33:48.132Z,98953.75
2023-03-26T04:36:16.640Z,98972.75
2023-03-26T04:38:47.006Z,98969.25
2023-03-26T04:41:15.681Z,98969.72
2023-03-26T04:43:43.660Z,98958.03
2023-03-26T04:46:13.976Z,98953.16
2023-03-26T04:48:42.212Z,98944.78
2023-03-26T04:51:10.674Z,98936.66
2023-03-26T04:53:38.583Z,98947.66
2023-03-26T04:56:56.036Z,98951.88
2023-03-26T04:59:31.658Z,98955.72
2023-03-26T05:02:00.371Z,98951.28
2023-03-26T05:04:31.399Z,98958.13
2023-03-26T05:06:59.911Z,98961.94
2023-03-26T05:09:28.776Z,98965.22
2023-03-26T05:11:57.808Z,98956.41
2023-03-26T05:14:26.007Z,98951.31
2023-03-26T05:16:53.976Z,98958.94
2023-03-26T05:19:24.854Z,98958.19
2023-03-26T05:21:52.782Z,98955.75
2023-03-26T05:24:20.393Z,98947.41
2023-03-26T05:26:48.156Z,98958.63
2023-03-26T05:29:18.576Z,98947.88
2023-03-26T05:31:47.002Z,98953.25
2023-03-26T05:34:14.975Z,98951.69
2023-03-26T05:36:43.311Z,98955.19
2023-03-26T05:39:11.776Z,98958.53
2023-03-26T05:41:44.049Z,98943.13
2023-03-26T05:44:12.118Z,98948.34
2023-03-26T05:46:39.888Z,98956.06
2023-03-26T05:49:08.084Z,98950.72
2023-03-26T05:51:36.325Z,98949.41
2023-03-26T05:54:08.499Z,98948.34
2023-03-26T05:56:38.268Z,98956.56
2023-03-26T05:59:09.106Z,98956.56
2023-03-26T06:01:37.786Z,98963.59
2023-03-26T06:04:06.045Z,98963.81
2023-03-26T06:06:36.138Z,98958.81
2023-03-26T06:09:03.960Z,98967.31
2023-03-26T06:11:36.820Z,98968.16
2023-03-26T06:14:06.929Z,98960.03
2023-03-26T06:16:35.253Z,98962.28
2023-03-26T06:19:03.817Z,98963.13
2023-03-26T06:21:31.698Z,98951.19
2023-03-26T06:24:00.040Z,98947.31
2023-03-26T06:26:28.489Z,98957.59
2023-03-26T06:28:56.363Z,98955.41
2023-03-26T06:31:24.902Z,98953.84
2023-03-26T06:33:52.970Z,98950.81
2023-03-26T06:36:20.605Z,98959.75
2023-03-26T06:38:51.749Z,98947.50
2023-03-26T06:41:19.490Z,98954.69
2023-03-26T06:43:50.592Z,98947.19
2023-03-26T06:46:18.519Z,98947.25
2023-03-26T06:48:54.903Z,98946.03
2023-03-26T06:51:23.781Z,98949.37
2023-03-26T06:53:53.339Z,98940.13
2023-03-26T06:56:21.720Z,98950.13
2023-03-26T06:58:49.728Z,98954.13
2023-03-26T07:01:21.382Z,98953.09
2023-03-26T07:04:01.373Z,98954.56
2023-03-26T07:06:54.307Z,98957.66
2023-03-26T07:09:31.497Z,98962.75
2023-03-26T07:12:00.642Z,98954.53
2023-03-26T07:14:28.901Z,98957.69
2023-03-26T07:16:59.113Z,98954.53
2023-03-26T07:19:33.031Z,98954.19
2023-03-26T07:22:01.990Z,98947.19
2023-03-26T07:24:32.642Z,98943.53
2023-03-26T07:27:13.423Z,98941.87
2023-03-26T07:29:49.206Z,98947.34
2023-03-26T07:32:42.177Z,98940.75
2023-03-26T07:35:37.065Z,98949.91
2023-03-26T07:38:13.634Z,98950.84
2023-03-26T07:40:51.377Z,98947.53
2023-03-26T07:43:48.838Z,98949.56
2023-03-26T07:46:17.478Z,98953.41
2023-03-26T07:48:48.068Z,98958.25
2023-03-26T07:51:16.422Z,98962.84
2023-03-26T07:53:45.080Z,98957.19
2023-03-26T07:56:17.778Z,98968.75
2023-03-26T07:58:56.598Z,98972.06
2023-03-26T08:01:36.665Z,98964.03
2023-03-26T08:04:27.105Z,98959.56
2023-03-26T08:07:08.392Z,98968.59
2023-03-26T08:09:56.616Z,98958.47
2023-03-26T08:12:57.504Z,98957.97
2023-03-26T08:15:36.580Z,98969.41
2023-03-26T08:18:38.552Z,98963.47
2023-03-26T08:21:17.348Z,98959.69
2023-03-26T08:23:58.778Z,98954.44
2023-03-26T08:26:32.735Z,98950.00
2023-03-26T08:29:14.009Z,98948.00
2023-03-26T08:31:43.423Z,98955.44
2023-03-26T08:34:12.215Z,98943.06
2023-03-26T08:36:40.102Z,98937.81
2023-03-26T08:39:08.295Z,98938.44
2023-03-26T08:42:00.468Z,98934.69
2023-03-26T08:45:06.478Z,98922.16
2023-03-26T08:48:01.602Z,98931.16
2023-03-26T08:50:53.055Z,98932.16
2023-03-26T08:53:57.771Z,98926.72
2023-03-26T08:56:31.935Z,98932.84
2023-03-26T08:59:21.398Z,98925.69
2023-03-26T09:02:17.201Z,98931.28
2023-03-26T09:05:03.702Z,98923.34
2023-03-26T09:08:09.244Z,98927.31
2023-03-26T09:11:14.630Z,98929.13
2023-03-26T09:14:20.150Z,98921.44
2023-03-26T09:17:01.787Z,98924.59
2023-03-26T09:19:55.631Z,98922.28
2023-03-26T09:22:38.740Z,98921.00
2023-03-26T09:25:12.766Z,98923.41
2023-03-26T09:27:55.886Z,98911.41
2023-03-26T09:30:32.732Z,98909.00
2023-03-26T09:33:17.424Z,98921.41
2023-03-26T09:35:52.691Z,98912.59
2023-03-26T09:38:44.257Z,98901.22
2023-03-26T09:41:18.327Z,98911.59
2023-03-26T09:43:51.796Z,98911.53
2023-03-26T09:46:34.588Z,98907.09
2023-03-26T09:49:16.623Z,98901.84
2023-03-26T09:52:15.587Z,98904.69
2023-03-26T09:55:29.826Z,98896.56
2023-03-26T09:58:35.524Z,98894.72
2023-03-26T10:01:18.206Z,98891.66
2023-03-26T10:04:17.061Z,98891.31
2023-03-26T10:07:04.414Z,98882.75
2023-03-26T10:09:44.983Z,98872.25
2023-03-26T10:12:21.856Z,98874.84
2023-03-26T10:14:52.441Z,98855.88
2023-03-26T10:17:20.040Z,98860.00
2023-03-26T10:20:24.190Z,98851.13
2023-03-26T10:23:01.741Z,98837.47
2023-03-26T10:25:39.329Z,98831.16
2023-03-26T10:28:21.268Z,98831.12
2023-03-26T10:30:55.270Z,98828.16
2023-03-26T10:33:38.242Z,98818.75
2023-03-26T10:36:05.835Z,98817.88
2023-03-26T10:39:11.530Z,98809.66
2023-03-26T10:42:11.525Z,98820.03
2023-03-26T10:44:55.402Z,98812.25
2023-03-26T10:47:29.621Z,98812.37
2023-03-26T10:50:26.684Z,98823.50
2023-03-26T10:53:35.951Z,98844.94
2023-03-26T10:56:14.454Z,98877.97
2023-03-26T10:58:46.102Z,98879.63
2023-03-26T11:01:41.532Z,98863.66
2023-03-26T11:04:46.612Z,98859.97
2023-03-26T11:07:35.262Z,98847.91
2023-03-26T11:10:11.594Z,98826.50
2023-03-26T11:12:49.253Z,98816.62
2023-03-26T11:15:40.493Z,98803.13
2023-03-26T11:18:16.108Z,98801.53
2023-03-26T11:21:20.604Z,98783.50
2023-03-26T11:24:04.988Z,98779.75
2023-03-26T11:26:48.028Z,98777.34
2023-03-26T11:29:31.378Z,98768.31
2023-03-26T11:32:45.454Z,98765.44
2023-03-26T11:35:41.025Z,98752.00
2023-03-26T11:38:15.840Z,98758.69
2023-03-26T11:40:44.559Z,98753.91
2023-03-26T11:43:13.564Z,98751.53
2023-03-26T11:45:44.908Z,98740.44
2023-03-26T11:48:22.259Z,98739.25
2023-03-26T11:50:55.408Z,98731.13
2023-03-26T11:53:28.939Z,98727.25
2023-03-26T11:56:13.166Z,98713.03
2023-03-26T11:58:54.868Z,98707.31
2023-03-26T12:01:40.857Z,98704.53
2023-03-26T12:04:14.102Z,98690.78
2023-03-26T12:06:58.199Z,98694.66
2023-03-26T12:09:26.563Z,98689.72
2023-03-26T12:12:00.101Z,98685.91
2023-03-26T12:14:30.809Z,98676.72
2023-03-26T12:17:01.615Z,98672.63
2023-03-26T12:19:38.368Z,98677.84
2023-03-26T12:22:06.507Z,98668.81
2023-03-26T12:24:36.521Z,98659.06
2023-03-26T12:27:26.684Z,98651.00
2023-03-26T12:30:20.085Z,98652.72
2023-03-26T12:32:49.635Z,98645.88
2023-03-26T12:35:26.991Z,98639.53
2023-03-26T12:38:33.560Z,98633.81
2023-03-26T12:44:44.495Z,98633.16
2023-03-26T12:44:56.530Z,98625.84
2023-03-26T12:47:58.043Z,98625.56
2023-03-26T12:50:15.484Z,98622.03
2023-03-26T12:53:12.161Z,98605.53
2023-03-26T12:55:43.276Z,98600.25
2023-03-26T12:58:27.639Z,98598.97
2023-03-26T13:01:11.125Z,98586.34
2023-03-26T13:03:57.670Z,98595.59
2023-03-26T13:06:58.920Z,98589.25
2023-03-26T13:09:42.247Z,98586.00
2023-03-26T13:12:21.534Z,98570.22
2023-03-26T13:15:04.565Z,98577.53
2023-03-26T13:17:44.266Z,98569.56
2023-03-26T13:20:38.336Z,98566.28
2023-03-26T13:23:18.342Z,98564.56
2023-03-26T13:25:49.205Z,98556.91
2023-03-26T13:28:26.100Z,98546.72
2023-03-26T13:31:04.261Z,98540.66
2023-03-26T13:33:42.907Z,98530.50
2023-03-26T13:36:36.619Z,98530.34
2023-03-26T13:39:30.990Z,98530.22
2023-03-26T13:42:23.987Z,98526.31
2023-03-26T13:45:35.575Z,98515.06
2023-03-26T13:48:14.679Z,98520.69
2023-03-26T13:50:44.775Z,98517.34
2023-03-26T13:53:24.798Z,98509.38
2023-03-26T13:56:00.149Z,98506.44
2023-03-26T13:59:09.237Z,98503.38
2023-03-26T14:01:41.936Z,98504.56
2023-03-26T14:04:18.699Z,98493.13
2023-03-26T14:07:01.230Z,98502.09
2023-03-26T14:09:35.135Z,98491.13
2023-03-26T14:12:38.850Z,98491.97
2023-03-26T14:15:14.091Z,98483.66
2023-03-26T14:17:50.759Z,98475.91
2023-03-26T14:20:36.655Z,98473.72
2023-03-26T14:23:35.684Z,98471.31
2023-03-26T14:26:15.681Z,98469.72
2023-03-26T14:28:46.240Z,98471.00
2023-03-26T14:31:17.452Z,98468.66
2023-03-26T14:34:05.121Z,98462.41
2023-03-26T14:36:47.894Z,98450.66
2023-03-26T14:39:22.628Z,98452.91
2023-03-26T14:42:02.635Z,98444.41
2023-03-26T14:45:07.882Z,98445.53
2023-03-26T14:47:42.873Z,98439.50
2023-03-26T14:50:13.798Z,98428.91
2023-03-26T14:52:48.031Z,98432.09
2023-03-26T14:55:34.812Z,98432.22
2023-03-26T14:58:19.740Z,98425.41
2023-03-26T15:01:06.667Z,98424.44
2023-03-26T15:03:43.601Z,98412.62
2023-03-26T15:06:14.465Z,98415.31
2023-03-26T15:09:10.039Z,98415.03
2023-03-26T15:12:13.185Z,98407.25
2023-03-26T15:14:59.591Z,98393.81
2023-03-26T15:17:51.044Z,98392.34
2023-03-26T15:20:45.373Z,98392.28
2023-03-26T15:23:40.885Z,98379.06
2023-03-26T15:26:11.379Z,98381.31
2023-03-26T15:29:07.207Z,98365.03
2023-03-26T15:32:00.262Z,98368.34
2023-03-26T15:34:50.406Z,98368.53
2023-03-26T15:37:36.533Z,98369.19
2023-03-26T15:40:16.930Z,98368.84
2023-03-26T15:43:06.465Z,98371.13
2023-03-26T15:45:49.892Z,98360.44
2023-03-26T15:48:35.508Z,98358.75
2023-03-26T15:51:24.809Z,98359.63
2023-03-26T15:53:59.810Z,98354.87
2023-03-26T15:56:58.516Z,98363.50
2023-03-26T15:59:38.007Z,98352.66
2023-03-26T16:02:43.342Z,98351.25
2023-03-26T16:05:25.364Z,98339.41
2023-03-26T16:08:23.328Z,98344.19
2023-03-26T16:10:58.976Z,98340.88
2023-03-26T16:13:34.174Z,98338.78
2023-03-26T16:16:05.060Z,98334.09
2023-03-26T16:18:37.069Z,98333.00
2023-03-26T16:21:30.576Z,98315.66
2023-03-26T16:24:02.203Z,98316.19
2023-03-26T16:26:48.718Z,98313.28
2023-03-26T16:29:22.559Z,98305.31
2023-03-26T16:31:59.460Z,98299.13
2023-03-26T16:34:38.760Z,98293.47
2023-03-26T16:37:33.116Z,98276.63
2023-03-26T16:40:18.352Z,98282.81
2023-03-26T16:42:58.505Z,98277.56
2023-03-26T16:45:34.116Z,98275.69
2023-03-26T16:48:27.841Z,98278.91
2023-03-26T16:51:33.786Z,98278.13
2023-03-26T16:54:20.030Z,98272.28
2023-03-26T16:56:57.114Z,98273.47
2023-03-26T17:00:04.519Z,98272.50
2023-03-26T17:02:57.653Z,98271.69
2023-03-26T17:06:04.026Z,98275.59
2023-03-26T17:08:35.634Z,98280.50
2023-03-26T17:11:24.401Z,98285.37
2023-03-26T17:13:58.550Z,98276.41
2023-03-26T17:16:50.134Z,98281.81
2023-03-26T17:19:37.128Z,98280.25
2023-03-26T17:22:23.903Z,98280.53
2023-03-26T17:25:22.822Z,98279.94
2023-03-26T17:28:12.460Z,98275.94
2023-03-26T17:31:11.535Z,98275.47
2023-03-26T17:33:39.860Z,98280.69
2023-03-26T17:36:19.742Z,98276.44
2023-03-26T17:38:47.792Z,98277.75
2023-03-26T17:41:50.197Z,98284.69
2023-03-26T17:45:06.822Z,98277.31
2023-03-26T17:47:38.677Z,98287.38
2023-03-26T17:50:24.346Z,98283.53
2023-03-26T17:52:56.148Z,98274.84
2023-03-26T17:55:31.475Z,98274.94
2023-03-26T17:58:01.340Z,98283.09
2023-03-26T18:00:36.336Z,98273.97
2023-03-26T18:03:30.852Z,98272.06
2023-03-26T18:06:06.574Z,98273.03
2023-03-26T18:08:34.799Z,98270.81
2023-03-26T18:11:08.693Z,98268.75
2023-03-26T18:13:58.686Z,98263.59
2023-03-26T18:16:30.930Z,98271.34
2023-03-26T18:19:00.810Z,98264.25
2023-03-26T18:21:39.655Z,98273.25
2023-03-26T18:24:31.622Z,98268.63
2023-03-26T18:27:03.709Z,98266.59
2023-03-26T18:29:33.966Z,98264.25
2023-03-26T18:32:11.981Z,98266.25
2023-03-26T18:34:47.375Z,98262.63
2023-03-26T18:37:28.339Z,98255.31
2023-03-26T18:40:08.073Z,98259.25
2023-03-26T18:42:36.336Z,98262.50
2023-03-26T18:45:08.938Z,98260.91
2023-03-26T18:47:37.131Z,98254.06
2023-03-26T18:50:20.641Z,98252.59
2023-03-26T18:52:48.857Z,98250.00
2023-03-26T18:55:17.952Z,98247.16
2023-03-26T18:57:50.056Z,98239.87
2023-03-26T19:00:27.216Z,98234.75
2023-03-26T19:03:10.119Z,98222.41
2023-03-26T19:05:38.752Z,98225.69
2023-03-26T19:08:06.885Z,98212.97
2023-03-26T19:10:36.294Z,98207.38
2023-03-26T19:13:04.532Z,98207.38
2023-03-26T19:15:34.408Z,98195.28
2023-03-26T19:18:04.907Z,98190.25
2023-03-26T19:20:40.090Z,98188.09
2023-03-26T19:23:13.288Z,98190.56
2023-03-26T19:25:45.063Z,98183.25
2023-03-26T19:28:20.733Z,98176.03
2023-03-26T19:31:00.140Z,98181.78
2023-03-26T19:33:40.668Z,98177.25
2023-03-26T19:36:20.546Z,98166.53
2023-03-26T19:38:48.401Z,98164.03
2023-03-26T19:41:30.181Z,98161.25
2023-03-26T19:44:03.562Z,98154.97
2023-03-26T19:46:35.232Z,98145.41
2023-03-26T19:49:33.565Z,98159.41
2023-03-26T19:52:12.745Z,98144.66
2023-03-26T19:54:59.780Z,98145.78
2023-03-26T19:57:30.730Z,98134.22
2023-03-26T20:00:07.925Z,98134.81
2023-03-26T20:02:36.349Z,98124.44
2023-03-26T20:05:22.431Z,98118.75
2023-03-26T20:07:51.066Z,98105.22
2023-03-26T20:10:20.013Z,98104.59
2023-03-26T20:12:47.873Z,98101.22
2023-03-26T20:15:20.253Z,98093.50
2023-03-26T20:17:48.233Z,98092.09
2023-03-26T20:20:17.194Z,98083.22
2023-03-26T20:22:46.086Z,98079.69
2023-03-26T20:25:19.849Z,98079.41
2023-03-26T20:27:48.114Z,98070.47
2023-03-26T20:30:27.515Z,98067.91
2023-03-26T20:33:12.028Z,98066.53
2023-03-26T20:35:41.552Z,98046.38
2023-03-26T20:38:09.973Z,98040.03
2023-03-26T20:40:38.731Z,98036.63
2023-03-26T20:43:11.548Z,98026.91
2023-03-26T20:45:40.383Z,98020.13
2023-03-26T20:48:08.814Z,98016.81
2023-03-26T20:50:38.739Z,98011.87
2023-03-26T20:53:16.889Z,98007.72
2023-03-26T20:55:45.114Z,98006.22
2023-03-26T20:58:19.716Z,98001.03
2023-03-26T21:01:00.872Z,98006.22
2023-03-26T21:03:30.449Z,97995.81
2023-03-26T21:06:01.656Z,97997.09
2023-03-26T21:08:30.190Z,98002.75
2023-03-26T21:10:58.125Z,97996.22
2023-03-26T21:13:33.266Z,98003.44
2023-03-26T21:16:01.373Z,97991.44
2023-03-26T21:18:29.971Z,97997.16
2023-03-26T21:21:18.027Z,97994.78
2023-03-26T21:23:54.482Z,97997.28
2023-03-26T21:26:30.159Z,97995.50
2023-03-26T21:28:58.443Z,97998.91
2023-03-26T21:31:26.531Z,97999.50
2023-03-26T21:33:54.532Z,97993.31
2023-03-26T21:36:23.260Z,98003.94
2023-03-26T21:38:53.595Z,98003.53
2023-03-26T21:41:23.169Z,97998.78
2023-03-26T21:43:51.501Z,98002.03
2023-03-26T21:46:19.546Z,98007.03
2023-03-26T21:48:47.720Z,98006.91
2023-03-26T21:51:16.130Z,98007.97
2023-03-26T21:53:44.009Z,98015.12
2023-03-26T21:56:36.427Z,98016.06
2023-03-26T21:59:17.877Z,98016.88
2023-03-26T22:02:24.471Z,98024.69
2023-03-26T22:04:57.672Z,98037.59
2023-03-26T22:07:34.120Z,98031.28
2023-03-26T22:10:02.704Z,98036.00
2023-03-26T22:12:30.643Z,98035.09
2023-03-26T22:14:58.254Z,98037.88
2023-03-26T22:17:26.316Z,98037.00
2023-03-26T22:19:54.847Z,98033.16
2023-03-26T22:22:22.555Z,98042.06
2023-03-26T22:24:50.536Z,98028.50
2023-03-26T22:27:18.174Z,98021.69
2023-03-26T22:29:48.877Z,98027.97
2023-03-26T22:32:16.812Z,98026.84
2023-03-26T22:34:44.644Z,98020.34
2023-03-26T22:37:12.325Z,98011.50
2023-03-26T22:39:40.321Z,97997.84
2023-03-26T22:42:08.148Z,97997.06
2023-03-26T22:44:35.958Z,97994.97
2023-03-26T22:47:03.879Z,97997.50
2023-03-26T22:49:32.749Z,97993.22
2023-03-26T22:52:00.424Z,97988.22
2023-03-26T22:54:28.638Z,97987.03
2023-03-26T22:56:56.270Z,97972.31
2023-03-26T22:59:23.940Z,97978.00
2023-03-26T23:01:51.996Z,97981.37
2023-03-26T23:04:31.406Z,97977.75
2023-03-26T23:07:00.219Z,97973.25
2023-03-26T23:09:28.336Z,97975.81
2023-03-26T23:11:56.156Z,97972.41
2023-03-26T23:14:24.151Z,97972.78
2023-03-26T23:16:51.790Z,97969.19
2023-03-26T23:19:19.492Z,97963.84
2023-03-26T23:21:47.485Z,97969.38
2023-03-26T23:24:15.417Z,97977.88
2023-03-26T23:26:50.600Z,97970.44
2023-03-26T23:29:19.173Z,97967.44
2023-03-26T23:31:47.181Z,97966.31
2023-03-26T23:34:14.962Z,97962.91
2023-03-26T23:36:42.907Z,97958.25
2023-03-26T23:39:10.710Z,97959.44
2023-03-26T23:41:45.726Z,97955.53
2023-03-26T23:44:13.764Z,97950.19
2023-03-26T23:46:41.482Z,97951.97
2023-03-26T23:49:09.251Z,97942.16
2023-03-26T23:51:37.143Z,97930.03
2023-03-26T23:54:04.838Z,97914.28
2023-03-26T23:56:32.680Z,97906.47
2023-03-26T23:59:00.931Z,97890.78
